Main page
METAR-TAF:

METAR-TAF

Airports :

Farnborough Airport

Farnborough, England

latitude: 51-17N, longitude: 000-46W, elevation: 65 m

Current weather observation

The report was made 13 minutes ago, at 13:50 UTC
Wind 5 kt from the East/Southeast
Temperature 11°C
Humidity 87%
Pressure 1017 hPa
Visibility 10 km or more
Few clouds at a height of 1900 ft
Broken clouds at a height of 3200 ft
rain

METAR: EGLF 221350Z 12005KT 9999 RA FEW019 BKN032 11/09 Q1017

Time: 15:03 (14:03 UTC)

Forecast

The report was made 3 hours and 2 minutes ago, at 11:01 UTC
Forecast valid from 22 at 12 UTC to 22 at 19 UTC
Wind 10 kt from the West/Southwest
Visibility 10 km or more
Few clouds at a height of 2000 ft
light rain
Becoming
from 22 at 12 UTC to 22 at 14 UTC
Wind 8 kt from the East/Southeast
Temporary
from 22 at 12 UTC to 22 at 19 UTC
Visibility: 6000 m
Broken clouds at a height of 800 ft
rain

TAF: EGLF 221101Z 2212/2219 25010KT 9999 -RA FEW020 BECMG 2212/2214 12008KT TEMPO 2212/2219 6000 RA BKN008

Weather observations and forecasts of more than 4000 airports (METAR and TAF reports).

The available stations are represented by yellow and red dots on the map.

Hover mouse over dot to see the name of the station.

Then click to see weather observations and forecasts.

To change the map : click on the green buttons with a black cross to zoom in, on the green button with a dash to zoom out, or on the green arrows for adjacent maps.


METAR-TAF: